Terminal Aerodrome Forecast
Issued by NWS

Current Version | Previous Version | Text Only | Print | Product List | Glossary On
Versions: 1 2 3 4 5 6 7 8 9 10 11 12 13 14 15 16 17 18 19 20 21
000
FTUS41 KPHI 110623 AAB
TAFMIV
TAF AMD
KMIV 110623Z 1106/1206 VRB03KT P6SM SCT007 OVC050
      TEMPO 1108/1112 5SM -SHRA BR BKN007 BKN025
     FM111300 31007KT P6SM SCT015 BKN080
     FM111700 28009KT P6SM SCT050
     FM120000 VRB03KT P6SM FEW040 BKN250=

USA.gov is the U.S. government's official web portal to all federal, state and local government web resources and services.